Time;durP1;ratioP1;P1;durP2;ratioP2;P2;SDS_P1;SDS_P2;PMS_P1;PMS_P2;Temp;Humidity;BMP_temperature;BMP_pressure;BME280_temperature;BME280_humidity;BME280_pressure;Samples;Min_cycle;Max_cycle;Signal;HPM_P1;HPM_P2
2024/01/23 00:00:11;;;;;;;1.00;1.00;;;;;;;5.40;88.70;99128.78;6116028;23;20097;-94
2024/01/23 00:02:40;;;;;;;0.90;0.90;;;;;;;5.47;88.41;99115.09;6111154;23;20075;-95
2024/01/23 00:05:06;;;;;;;0.90;0.90;;;;;;;5.54;88.33;99117.22;6158749;23;20017;-93
2024/01/23 00:07:32;;;;;;;0.80;0.80;;;;;;;5.45;88.43;99111.44;6158475;23;20019;-92
2024/01/23 00:09:57;;;;;;;0.90;0.90;;;;;;;5.36;88.47;99127.69;6134779;23;20025;-92
2024/01/23 00:12:26;;;;;;;0.88;0.88;;;;;;;5.47;87.85;99136.25;6157909;23;20020;-92
2024/01/23 00:14:52;;;;;;;0.90;0.90;;;;;;;5.46;87.37;99134.44;6135031;23;20020;-92
2024/01/23 00:17:17;;;;;;;0.90;0.90;;;;;;;5.40;87.48;99140.28;6132264;23;20005;-92
2024/01/23 00:19:44;;;;;;;0.80;0.80;;;;;;;5.41;87.61;99135.88;6156816;23;20032;-91
2024/01/23 00:22:12;;;;;;;0.90;0.90;;;;;;;5.15;88.30;99142.38;6156638;23;20005;-94
2024/01/23 00:24:38;;;;;;;0.90;0.90;;;;;;;5.17;88.34;99140.72;6157144;23;20024;-92
2024/01/23 00:27:04;;;;;;;0.80;0.80;;;;;;;5.17;88.12;99123.94;6129429;23;20072;-91
2024/01/23 00:29:30;;;;;;;0.93;0.93;;;;;;;5.07;88.90;99120.78;6157533;23;20010;-93
2024/01/23 00:31:55;;;;;;;0.90;0.90;;;;;;;4.98;89.86;99117.59;6130764;23;20044;-93
2024/01/23 00:34:21;;;;;;;0.90;0.90;;;;;;;5.24;88.79;99132.31;6155970;23;20022;-95
2024/01/23 00:36:47;;;;;;;0.85;0.85;;;;;;;5.22;87.84;99107.53;6131187;23;20049;-94
2024/01/23 00:39:13;;;;;;;0.90;0.90;;;;;;;5.08;88.84;99108.50;6130783;23;20096;-92
2024/01/23 00:41:40;;;;;;;1.00;1.00;;;;;;;5.00;89.20;99123.91;6129485;23;20029;-93
2024/01/23 00:44:06;;;;;;;0.93;0.93;;;;;;;5.31;87.21;99101.81;6155317;23;20008;-93
2024/01/23 00:46:31;;;;;;;0.90;0.90;;;;;;;5.35;86.79;99110.00;6155710;23;20033;-94
2024/01/23 00:48:57;;;;;;;0.90;0.90;;;;;;;5.36;86.67;99113.56;6157089;23;20021;-94
2024/01/23 00:51:24;;;;;;;1.00;1.00;;;;;;;5.30;86.57;99100.91;6135026;23;20014;-93
2024/01/23 00:53:52;;;;;;;0.98;0.98;;;;;;;5.45;85.90;99102.59;6157617;23;20100;-94
2024/01/23 00:56:18;;;;;;;0.90;0.90;;;;;;;5.38;85.85;99104.00;6159806;23;20135;-94
2024/01/23 00:58:43;;;;;;;0.90;0.90;;;;;;;5.67;84.22;99113.53;6133115;23;20029;-93
2024/01/23 01:01:10;;;;;;;0.95;0.95;;;;;;;5.64;84.50;99108.06;6182775;23;20069;-95
2024/01/23 01:03:36;;;;;;;0.90;0.90;;;;;;;5.57;85.07;99100.63;6130550;23;20517;-92
2024/01/23 01:06:03;;;;;;;1.00;1.00;;;;;;;5.48;85.03;99110.69;6129256;23;20021;-93
2024/01/23 01:08:30;;;;;;;1.00;1.00;;;;;;;5.53;84.94;99096.88;6154279;23;20092;-96
2024/01/23 01:10:56;;;;;;;0.80;0.80;;;;;;;5.53;84.49;99096.88;6158445;23;20013;-94
2024/01/23 01:13:23;;;;;;;0.90;0.90;;;;;;;5.81;82.75;99096.66;6159674;23;20013;-93
2024/01/23 01:15:49;;;;;;;0.90;0.90;;;;;;;5.76;83.09;99098.13;6134175;23;20486;-94
2024/01/23 01:18:17;;;;;;;0.90;0.90;;;;;;;5.85;82.30;99105.69;6160303;23;20013;-93
2024/01/23 01:20:45;;;;;;;0.88;0.88;;;;;;;6.08;80.34;99128.09;6160242;23;20014;-91
2024/01/23 01:23:10;;;;;;;;;;;;;;;6.05;80.16;99117.34;6160852;23;20085;-93
2024/01/23 01:25:36;;;;;;;0.90;0.90;;;;;;;6.24;78.62;99120.13;6184045;23;19939;-92
2024/01/23 01:28:26;;;;;;;0.98;0.98;;;;;;;6.46;76.81;99118.59;6160380;23;20017;-90
2024/01/23 01:30:51;;;;;;;0.88;0.88;;;;;;;6.55;75.95;99119.97;6135673;23;20057;-94
2024/01/23 01:33:18;;;;;;;0.90;0.90;;;;;;;6.61;75.63;99122.97;6168191;23;20025;-92
2024/01/23 01:35:44;;;;;;;0.90;0.90;;;;;;;6.67;75.52;99140.91;6149553;23;20017;-91
2024/01/23 01:38:10;;;;;;;0.90;0.90;;;;;;;6.67;75.33;99148.88;6149247;23;20013;-90
2024/01/23 01:40:35;;;;;;;0.88;0.88;;;;;;;6.74;74.83;99142.13;6148359;23;20009;-93
2024/01/23 01:43:02;;;;;;;0.80;0.80;;;;;;;6.74;74.33;99150.97;6173293;23;20457;-90
2024/01/23 01:45:27;;;;;;;0.90;0.90;;;;;;;6.73;75.19;99149.16;6144290;23;20021;-91
2024/01/23 01:47:53;;;;;;;0.80;0.80;;;;;;;6.76;74.95;99146.69;6172600;23;20001;-91
2024/01/23 01:50:19;;;;;;;0.90;0.90;;;;;;;6.85;74.46;99147.16;6152336;23;20053;-90
2024/01/23 01:52:45;;;;;;;0.90;0.90;;;;;;;6.86;74.60;99164.88;6174681;23;20033;-92
2024/01/23 01:55:14;;;;;;;0.80;0.80;;;;;;;6.77;74.96;99156.44;6147508;23;20028;-89
2024/01/23 01:57:40;;;;;;;0.80;0.80;;;;;;;6.65;75.54;99153.16;6168989;23;20025;-92
2024/01/23 02:00:09;;;;;;;0.90;0.90;;;;;;;6.61;75.74;99168.03;6165291;23;20081;-89
2024/01/23 02:02:41;;;;;;;0.77;0.77;;;;;;;6.67;75.29;99164.78;6141152;23;20022;-91
2024/01/23 02:05:07;;;;;;;0.90;0.90;;;;;;;6.65;74.97;99156.72;6148502;23;20024;-91
2024/01/23 02:07:33;;;;;;;0.85;0.85;;;;;;;6.66;75.88;99147.06;6142642;23;20013;-92
2024/01/23 02:09:59;;;;;;;0.90;0.90;;;;;;;6.38;77.30;99156.22;6137626;23;20013;-90
2024/01/23 02:12:24;;;;;;;0.90;0.90;;;;;;;6.13;79.00;99164.63;6157247;23;20409;-90
2024/01/23 02:14:49;;;;;;;0.90;0.90;;;;;;;5.91;81.17;99182.78;6135793;23;20124;-91
2024/01/23 02:17:15;;;;;;;0.80;0.80;;;;;;;5.97;81.24;99196.38;6133870;23;20067;-91
2024/01/23 02:19:44;;;;;;;0.90;0.90;;;;;;;5.74;82.48;99191.53;6136601;23;20056;-92
2024/01/23 02:22:11;;;;;;;1.00;1.00;;;;;;;5.26;83.14;99202.09;6158873;23;20014;-90
2024/01/23 02:24:36;;;;;;;1.10;1.10;;;;;;;4.98;84.33;99220.72;6157580;23;20017;-93
2024/01/23 02:27:02;;;;;;;1.00;1.00;;;;;;;4.87;84.17;99209.53;6133737;23;19997;-93
2024/01/23 02:29:28;;;;;;;0.90;0.90;;;;;;;4.81;84.92;99201.25;6158856;23;20017;-92
2024/01/23 02:31:53;;;;;;;1.00;1.00;;;;;;;4.78;84.82;99216.91;6158263;23;20022;-92
2024/01/23 02:34:21;;;;;;;1.00;1.00;;;;;;;4.70;85.48;99218.22;6157249;23;20069;-93
2024/01/23 02:36:47;;;;;;;;;;;;;;;4.61;85.62;99208.00;6159028;23;20064;-92
2024/01/23 02:39:12;;;;;;;1.10;1.10;;;;;;;4.71;85.44;99219.13;6182254;23;19916;-92
2024/01/23 02:41:38;;;;;;;1.00;1.00;;;;;;;4.76;86.25;99217.66;6159339;23;20014;-94
2024/01/23 02:44:04;;;;;;;1.00;1.00;;;;;;;4.83;85.49;99207.50;6133945;23;20067;-91
2024/01/23 02:46:34;;;;;;;1.00;1.00;;;;;;;4.71;86.17;99211.19;6159929;23;20311;-91
2024/01/23 02:48:59;;;;;;;0.90;0.90;;;;;;;4.69;86.34;99208.44;6134035;23;20009;-92
2024/01/23 02:51:25;;;;;;;1.00;1.00;;;;;;;4.81;86.08;99203.88;6160804;23;20027;-92
2024/01/23 02:53:50;;;;;;;1.00;1.00;;;;;;;4.85;86.15;99215.56;6157416;23;20065;-92
2024/01/23 02:56:15;;;;;;;1.00;1.00;;;;;;;5.17;84.10;99217.41;6156240;23;20021;-90
2024/01/23 02:58:42;;;;;;;0.90;0.90;;;;;;;5.15;84.36;99224.38;6155788;23;20021;-91
2024/01/23 03:01:08;;;;;;;1.00;1.00;;;;;;;5.11;85.14;99232.94;6155540;23;20086;-93
2024/01/23 03:03:33;;;;;;;0.90;0.90;;;;;;;5.30;83.31;99225.25;6131047;23;20021;-90
2024/01/23 03:05:59;;;;;;;0.90;0.90;;;;;;;5.54;82.22;99232.78;6156954;23;20009;-92
2024/01/23 03:08:24;;;;;;;0.80;0.80;;;;;;;5.63;80.44;99228.91;6157813;23;20081;-92
2024/01/23 03:10:49;;;;;;;0.80;0.80;;;;;;;5.80;78.95;99229.88;6158130;23;20100;-92
2024/01/23 03:13:15;;;;;;;0.90;0.90;;;;;;;5.91;78.29;99209.28;6154554;23;20020;-94
2024/01/23 03:15:41;;;;;;;0.80;0.80;;;;;;;5.95;77.81;99216.59;6130272;23;20104;-94
2024/01/23 03:18:07;;;;;;;0.90;0.90;;;;;;;5.96;78.41;99217.50;6154836;23;20088;-92
2024/01/23 03:20:34;;;;;;;0.85;0.85;;;;;;;5.97;78.08;99221.97;6130160;23;20014;-93
2024/01/23 03:23:01;;;;;;;1.00;1.00;;;;;;;5.94;77.78;99232.38;6155251;23;20048;-93
2024/01/23 03:25:26;;;;;;;0.80;0.80;;;;;;;6.07;77.42;99225.19;6132133;23;20018;-92
2024/01/23 03:27:52;;;;;;;0.80;0.80;;;;;;;6.04;77.26;99237.38;6154991;23;20103;-91
2024/01/23 03:30:30;;;;;;;0.90;0.90;;;;;;;6.13;76.29;99238.81;6157126;23;20013;-89
2024/01/23 03:32:56;;;;;;;0.90;0.90;;;;;;;6.22;75.74;99245.41;6158104;23;20053;-92
2024/01/23 03:35:22;;;;;;;0.90;0.90;;;;;;;6.09;76.82;99236.81;6129532;23;20025;-93
2024/01/23 03:37:48;;;;;;;0.85;0.85;;;;;;;6.03;76.88;99235.53;6128849;23;20010;-90
2024/01/23 03:40:13;;;;;;;0.90;0.90;;;;;;;6.07;76.53;99237.53;6129131;23;20059;-90
2024/01/23 03:42:40;;;;;;;0.90;0.90;;;;;;;6.02;76.47;99250.53;6152753;23;20008;-91
2024/01/23 03:45:06;;;;;;;0.90;0.90;;;;;;;6.17;75.18;99226.59;6128486;23;20017;-91
2024/01/23 03:47:31;;;;;;;0.80;0.80;;;;;;;6.20;74.76;99240.03;6130215;23;20025;-92
2024/01/23 03:49:57;;;;;;;0.80;0.80;;;;;;;6.26;74.78;99247.41;6132034;23;20426;-92
2024/01/23 03:52:22;;;;;;;0.90;0.90;;;;;;;6.16;74.78;99245.97;6130420;23;20458;-90
2024/01/23 03:54:49;;;;;;;0.90;0.90;;;;;;;6.14;75.26;99252.94;6130909;23;20040;-88
2024/01/23 03:57:14;;;;;;;0.80;0.80;;;;;;;6.21;74.85;99260.38;6156716;23;20013;-91
2024/01/23 03:59:43;;;;;;;0.80;0.80;;;;;;;6.43;74.28;99259.81;6156461;23;20100;-92
2024/01/23 04:02:09;;;;;;;0.90;0.90;;;;;;;6.39;73.94;99264.03;6130684;23;20005;-92
2024/01/23 04:04:36;;;;;;;0.80;0.80;;;;;;;6.42;74.22;99277.47;6155754;23;20036;-90
2024/01/23 04:07:02;;;;;;;0.90;0.90;;;;;;;6.49;73.79;99272.50;6156541;23;20013;-92
2024/01/23 04:09:28;;;;;;;0.90;0.90;;;;;;;6.65;73.12;99264.50;6155694;23;20071;-92
2024/01/23 04:11:54;;;;;;;0.90;0.90;;;;;;;6.58;73.28;99278.28;6156215;23;20323;-91
2024/01/23 04:14:20;;;;;;;0.80;0.80;;;;;;;6.46;73.63;99277.63;6131196;23;20120;-91
2024/01/23 04:16:46;;;;;;;0.90;0.90;;;;;;;6.48;73.43;99278.63;6156073;23;20049;-91
2024/01/23 04:19:12;;;;;;;0.90;0.90;;;;;;;6.40;73.92;99279.09;6131407;23;20017;-94
2024/01/23 04:21:38;;;;;;;0.93;0.93;;;;;;;6.35;73.83;99277.94;6156778;23;20701;-91
2024/01/23 04:24:04;;;;;;;0.88;0.88;;;;;;;6.36;73.52;99284.16;6156472;23;20013;-91
2024/01/23 04:26:29;;;;;;;0.90;0.90;;;;;;;6.30;73.40;99278.53;6131644;23;20010;-92
2024/01/23 04:28:55;;;;;;;0.90;0.90;;;;;;;6.30;73.83;99279.44;6157614;23;20013;-91
2024/01/23 04:31:21;;;;;;;1.00;1.00;;;;;;;6.38;72.90;99294.03;6155811;23;20024;-90
2024/01/23 04:33:46;;;;;;;0.80;0.80;;;;;;;6.47;72.62;99304.22;6155884;23;20045;-92
2024/01/23 04:36:12;;;;;;;0.90;0.90;;;;;;;6.41;73.17;99302.13;6156997;23;20020;-92
2024/01/23 04:38:39;;;;;;;0.90;0.90;;;;;;;6.40;73.38;99318.88;6132457;23;20029;-92
2024/01/23 04:41:04;;;;;;;0.90;0.90;;;;;;;6.37;73.30;99312.47;6156233;23;20588;-92
2024/01/23 04:43:30;;;;;;;0.80;0.80;;;;;;;6.43;73.04;99319.03;6158482;23;20012;-91
2024/01/23 04:45:55;;;;;;;0.90;0.90;;;;;;;6.55;72.73;99312.56;6132106;23;20010;-92
2024/01/23 04:48:21;;;;;;;0.90;0.90;;;;;;;6.53;73.02;99312.50;6156405;23;20001;-91
2024/01/23 04:50:46;;;;;;;0.80;0.80;;;;;;;6.48;73.47;99327.25;6133064;23;20442;-93
2024/01/23 04:53:12;;;;;;;0.90;0.90;;;;;;;6.53;73.42;99335.44;6131831;23;20039;-91
2024/01/23 04:55:37;;;;;;;1.00;1.00;;;;;;;6.47;73.82;99330.72;6132188;23;20020;-92
2024/01/23 04:58:04;;;;;;;0.90;0.90;;;;;;;6.55;73.76;99339.09;6157377;23;20024;-91
2024/01/23 05:00:29;;;;;;;0.90;0.90;;;;;;;6.50;73.95;99325.56;6131939;23;20028;-92
2024/01/23 05:02:54;;;;;;;0.80;0.80;;;;;;;6.46;74.37;99335.94;6131982;23;20057;-92
2024/01/23 05:05:20;;;;;;;0.80;0.80;;;;;;;6.46;74.37;99343.88;6157871;23;20069;-92
2024/01/23 05:07:45;;;;;;;1.00;1.00;;;;;;;6.42;75.07;99343.72;6130564;23;20028;-88
2024/01/23 05:10:12;;;;;;;0.93;0.93;;;;;;;6.44;74.67;99367.66;6129716;23;20013;-92
2024/01/23 05:12:38;;;;;;;1.00;1.00;;;;;;;6.38;75.50;99377.94;6157271;23;20017;-92
2024/01/23 05:15:04;;;;;;;0.90;0.90;;;;;;;6.47;75.09;99377.50;6155265;23;20401;-91
2024/01/23 05:17:31;;;;;;;0.90;0.90;;;;;;;6.47;75.11;99385.47;6130128;23;20080;-89
2024/01/23 05:19:57;;;;;;;0.80;0.80;;;;;;;6.52;75.05;99402.56;6131040;23;20005;-91
2024/01/23 05:22:23;;;;;;;0.85;0.85;;;;;;;6.51;74.92;99395.41;6156424;23;20013;-89
2024/01/23 05:24:48;;;;;;;0.90;0.90;;;;;;;6.44;75.44;99399.47;6155265;23;20063;-92
2024/01/23 05:27:14;;;;;;;0.90;0.90;;;;;;;6.36;76.07;99393.72;6157293;23;20083;-92
2024/01/23 05:29:40;;;;;;;0.90;0.90;;;;;;;6.38;75.89;99400.03;6154992;23;20025;-92
2024/01/23 05:32:06;;;;;;;0.90;0.90;;;;;;;6.38;76.10;99402.69;6154347;23;20005;-92
2024/01/23 05:34:32;;;;;;;0.90;0.90;;;;;;;6.42;76.10;99401.13;6132239;23;20072;-92
2024/01/23 05:36:57;;;;;;;0.90;0.90;;;;;;;6.32;76.74;99418.22;6164386;23;20525;-91
2024/01/23 05:39:26;;;;;;;0.90;0.90;;;;;;;6.34;76.63;99415.69;6174627;23;20016;-90
2024/01/23 05:41:52;;;;;;;;;;;;;;;6.35;76.54;99415.75;6146090;23;20024;-92
2024/01/23 05:44:17;;;;;;;1.00;1.00;;;;;;;6.32;76.66;99419.97;6168470;23;19908;-91
2024/01/23 05:46:43;;;;;;;0.90;0.90;;;;;;;6.22;77.08;99434.44;6139570;23;20013;-91
2024/01/23 05:49:10;;;;;;;0.95;0.95;;;;;;;6.34;76.72;99440.44;6158507;23;20005;-91
2024/01/23 05:51:35;;;;;;;0.80;0.80;;;;;;;6.26;76.76;99449.69;6159654;23;20017;-92
2024/01/23 05:54:01;;;;;;;0.90;0.90;;;;;;;6.23;77.10;99456.53;6159535;23;20324;-91
2024/01/23 05:56:27;;;;;;;1.00;1.00;;;;;;;6.27;76.91;99453.25;6157302;23;20068;-91
2024/01/23 05:58:53;;;;;;;0.80;0.80;;;;;;;6.17;77.27;99451.81;6134128;23;20621;-91
2024/01/23 06:01:18;;;;;;;0.88;0.88;;;;;;;6.03;77.95;99458.03;6157954;23;20435;-92
2024/01/23 06:03:43;;;;;;;0.80;0.80;;;;;;;6.05;77.45;99462.59;6133329;23;20016;-89
2024/01/23 06:06:09;;;;;;;0.80;0.80;;;;;;;6.05;77.38;99469.66;6133398;23;20025;-93
2024/01/23 06:08:34;;;;;;;0.90;0.90;;;;;;;5.93;77.62;99474.22;6158690;23;20360;-93
2024/01/23 06:11:00;;;;;;;0.90;0.90;;;;;;;5.82;78.03;99482.41;6160274;23;20021;-94
2024/01/23 06:13:26;;;;;;;0.90;0.90;;;;;;;5.62;78.82;99488.25;6142066;23;20029;-93
2024/01/23 06:15:51;;;;;;;1.00;1.00;;;;;;;5.57;78.93;99489.69;6165970;23;20002;-94
2024/01/23 06:18:16;;;;;;;0.90;0.90;;;;;;;5.42;79.67;99492.31;6140998;23;20013;-93
2024/01/23 06:20:43;;;;;;;1.00;1.00;;;;;;;5.29;79.90;99501.22;6167116;23;20033;-93
2024/01/23 06:23:08;;;;;;;0.90;0.90;;;;;;;5.11;80.59;99510.66;6141095;23;20009;-92
2024/01/23 06:25:34;;;;;;;0.90;0.90;;;;;;;5.05;80.37;99524.41;6139345;23;20028;-92
2024/01/23 06:27:59;;;;;;;0.90;0.90;;;;;;;5.15;80.39;99520.59;6169550;23;20017;-92
2024/01/23 06:30:25;;;;;;;0.90;0.90;;;;;;;4.91;80.76;99527.00;6168502;23;20037;-92
2024/01/23 06:32:50;;;;;;;0.90;0.90;;;;;;;4.83;81.19;99535.31;6144303;23;20009;-91
2024/01/23 06:35:16;;;;;;;1.00;1.00;;;;;;;4.87;80.89;99549.66;6169018;23;20009;-92
2024/01/23 06:37:44;;;;;;;0.95;0.95;;;;;;;4.59;81.76;99554.88;6162881;23;20018;-93
2024/01/23 06:40:12;;;;;;;1.00;1.00;;;;;;;4.64;81.66;99553.44;6137750;23;20017;-93
2024/01/23 06:42:39;;;;;;;0.95;0.95;;;;;;;4.57;81.72;99565.38;6161364;23;20025;-92
2024/01/23 06:45:05;;;;;;;1.00;1.00;;;;;;;4.50;82.33;99570.13;6160751;23;20020;-94
2024/01/23 06:47:31;;;;;;;1.00;1.00;;;;;;;4.54;82.37;99582.75;6164449;23;20013;-95
2024/01/23 06:49:58;;;;;;;0.95;0.95;;;;;;;4.48;82.12;99583.25;6136566;23;20006;-94
2024/01/23 06:52:23;;;;;;;1.00;1.00;;;;;;;4.48;82.36;99592.91;6163514;23;20013;-93
2024/01/23 06:54:49;;;;;;;1.00;1.00;;;;;;;4.48;82.82;99593.81;6166887;23;20009;-94
2024/01/23 06:57:14;;;;;;;1.00;1.00;;;;;;;4.53;82.23;99595.03;6171621;23;20083;-94
2024/01/23 06:59:40;;;;;;;1.00;1.00;;;;;;;4.62;81.56;99608.88;6197509;23;20092;-92
2024/01/23 07:02:05;;;;;;;1.00;1.00;;;;;;;4.57;81.91;99615.56;6201558;23;20014;-92
2024/01/23 07:04:31;;;;;;;1.00;1.00;;;;;;;4.73;80.90;99617.50;6175811;23;20063;-92
2024/01/23 07:06:58;;;;;;;0.93;0.93;;;;;;;4.70;80.73;99622.59;6167797;23;20033;-94
2024/01/23 07:09:24;;;;;;;0.93;0.93;;;;;;;4.58;81.70;99637.63;6157862;23;20381;-92
2024/01/23 07:11:53;;;;;;;1.00;1.00;;;;;;;4.54;81.84;99635.59;6135911;23;20017;-93
2024/01/23 07:14:20;;;;;;;1.00;1.00;;;;;;;4.49;81.95;99639.66;6166168;23;20012;-95
2024/01/23 07:16:45;;;;;;;1.00;1.00;;;;;;;4.44;82.69;99649.91;6157588;23;20021;-93
2024/01/23 07:19:11;;;;;;;1.00;1.00;;;;;;;4.33;82.62;99666.75;6137965;23;20068;-95
2024/01/23 07:21:37;;;;;;;1.00;1.00;;;;;;;4.24;83.47;99666.13;6164640;23;20445;-94
2024/01/23 07:24:02;;;;;;;1.00;1.00;;;;;;;4.35;82.81;99663.41;6138653;23;20018;-93
2024/01/23 07:26:29;;;;;;;1.02;1.02;;;;;;;4.38;82.79;99666.25;6138777;23;20017;-93
2024/01/23 07:28:54;;;;;;;1.10;1.10;;;;;;;4.32;82.87;99675.50;6137826;23;20092;-92
2024/01/23 07:31:20;;;;;;;1.00;1.00;;;;;;;4.32;83.30;99676.41;6159447;23;20247;-95
2024/01/23 07:33:46;;;;;;;1.00;1.00;;;;;;;4.17;83.56;99674.41;6157314;23;20021;-93
2024/01/23 07:36:12;;;;;;;0.93;0.93;;;;;;;4.19;83.96;99683.38;6159016;23;20006;-94
2024/01/23 07:38:38;;;;;;;0.90;0.90;;;;;;;4.06;83.95;99686.88;6137389;23;20017;-94
2024/01/23 07:41:05;;;;;;;0.98;0.98;;;;;;;3.93;84.78;99700.97;6163287;23;20004;-93
2024/01/23 07:43:30;;;;;;;1.00;1.00;;;;;;;3.97;84.57;99705.63;6141878;23;20021;-93
2024/01/23 07:45:56;;;;;;;0.90;0.90;;;;;;;4.14;84.34;99708.56;6166693;23;20252;-94
2024/01/23 07:48:22;;;;;;;1.00;1.00;;;;;;;4.28;83.31;99713.09;6167189;23;20092;-94
2024/01/23 07:50:49;;;;;;;1.10;1.10;;;;;;;4.50;82.48;99715.47;6173149;23;20142;-92
2024/01/23 07:53:15;;;;;;;1.10;1.10;;;;;;;4.82;81.86;99717.66;6178080;23;20378;-91
2024/01/23 07:55:41;;;;;;;1.00;1.00;;;;;;;4.91;81.66;99722.66;6178828;23;20009;-91
2024/01/23 07:58:08;;;;;;;1.00;1.00;;;;;;;4.85;80.68;99734.66;6178506;23;20025;-93
2024/01/23 08:00:34;;;;;;;1.02;1.02;;;;;;;4.73;81.41;99741.75;6176037;23;20009;-94
2024/01/23 08:02:59;;;;;;;1.00;1.00;;;;;;;4.84;80.85;99743.41;6166220;23;20061;-95
2024/01/23 08:05:25;;;;;;;1.02;1.02;;;;;;;5.05;80.20;99735.97;6138189;23;20084;-94
2024/01/23 08:07:52;;;;;;;1.00;1.00;;;;;;;5.01;80.01;99744.53;6138699;23;20013;-94
2024/01/23 08:10:21;;;;;;;1.00;1.00;;;;;;;5.19;79.03;99747.50;6140544;23;20007;-93
2024/01/23 08:12:46;;;;;;;1.00;1.00;;;;;;;5.17;78.64;99750.81;6164521;23;20014;-93
2024/01/23 08:15:12;;;;;;;0.90;0.90;;;;;;;5.23;78.51;99757.47;6140874;23;20009;-94
2024/01/23 08:17:38;;;;;;;1.00;1.00;;;;;;;5.44;77.54;99754.41;6141196;23;20028;-94
2024/01/23 08:20:04;;;;;;;0.93;0.93;;;;;;;5.74;75.96;99747.53;6140486;23;20060;-94
2024/01/23 08:22:30;;;;;;;1.00;1.00;;;;;;;5.87;74.96;99747.50;6158293;23;20037;-95
2024/01/23 08:24:57;;;;;;;1.00;1.00;;;;;;;6.10;74.72;99756.94;6109998;23;20013;-93
2024/01/23 08:27:22;;;;;;;1.00;1.00;;;;;;;6.12;74.32;99747.34;6161272;23;20243;-94
2024/01/23 08:29:49;;;;;;;0.90;0.90;;;;;;;6.15;73.80;99751.09;6108658;23;20544;-95
2024/01/23 08:32:15;;;;;;;0.90;0.90;;;;;;;6.07;74.13;99762.03;6131450;23;20027;-94
2024/01/23 08:34:44;;;;;;;0.90;0.90;;;;;;;6.02;74.69;99752.88;6158359;23;20015;-94
2024/01/23 08:37:10;;;;;;;0.90;0.90;;;;;;;6.15;74.33;99753.75;6156808;23;20088;-94
2024/01/23 08:39:36;;;;;;;0.98;0.98;;;;;;;6.26;73.79;99745.56;6156889;23;20032;-94
2024/01/23 08:42:04;;;;;;;1.00;1.00;;;;;;;6.35;73.90;99754.09;6157541;23;20024;-96
2024/01/23 08:44:30;;;;;;;1.10;1.10;;;;;;;6.70;72.71;99745.63;6157628;23;20076;-94
2024/01/23 08:46:56;;;;;;;0.90;0.90;;;;;;;6.73;72.23;99753.78;6158588;23;20429;-94
2024/01/23 08:49:22;;;;;;;0.80;0.80;;;;;;;6.36;74.01;99767.41;6159055;23;20048;-94
2024/01/23 08:51:49;;;;;;;1.00;1.00;;;;;;;6.12;74.82;99765.88;6160707;23;20020;-93
2024/01/23 08:54:19;;;;;;;0.90;0.90;;;;;;;6.11;74.90;99780.88;6133124;23;20014;-94
2024/01/23 08:56:49;;;;;;;1.00;1.00;;;;;;;6.36;74.66;99783.31;6157597;23;20005;-94
2024/01/23 08:59:17;;;;;;;1.00;1.00;;;;;;;6.71;73.06;99783.66;6132524;23;20032;-94
2024/01/23 09:01:43;;;;;;;1.00;1.00;;;;;;;6.61;74.05;99787.50;6132366;23;20405;-93
2024/01/23 09:04:09;;;;;;;1.00;1.00;;;;;;;6.58;74.03;99800.59;6156596;23;20024;-92
2024/01/23 09:06:36;;;;;;;1.00;1.00;;;;;;;6.71;73.81;99795.22;6155883;23;20235;-93
2024/01/23 09:09:01;;;;;;;1.00;1.00;;;;;;;6.75;73.84;99793.66;6157026;23;20446;-93
2024/01/23 09:11:27;;;;;;;0.90;0.90;;;;;;;6.59;74.62;99791.81;6107674;23;20024;-94
2024/01/23 09:13:53;;;;;;;0.90;0.90;;;;;;;6.67;74.59;99799.41;6131846;23;20036;-93
2024/01/23 09:16:18;;;;;;;1.00;1.00;;;;;;;6.54;74.83;99811.81;6132424;23;20164;-92
2024/01/23 09:18:48;;;;;;;0.90;0.90;;;;;;;6.48;75.24;99815.00;6158658;23;20006;-96
2024/01/23 09:21:14;;;;;;;1.00;1.00;;;;;;;6.39;75.50;99815.34;6136440;23;20049;-93
2024/01/23 09:23:40;;;;;;;1.00;1.00;;;;;;;6.51;75.31;99839.03;6158675;23;20013;-92
2024/01/23 09:26:07;;;;;;;1.00;1.00;;;;;;;6.53;74.88;99831.19;6108967;23;20319;-94
2024/01/23 09:28:32;;;;;;;0.80;0.80;;;;;;;6.62;75.00;99839.72;6133870;23;20090;-95
2024/01/23 09:31:00;;;;;;;1.00;1.00;;;;;;;6.61;74.66;99841.47;6161819;23;20013;-93
2024/01/23 09:33:26;;;;;;;;;;;;;;;6.55;75.24;99842.81;6159603;23;20048;-94
2024/01/23 09:35:52;;;;;;;0.90;0.90;;;;;;;6.59;75.29;99851.03;6159512;23;19910;-95
2024/01/23 09:38:21;;;;;;;0.90;0.90;;;;;;;6.69;74.41;99856.09;6158251;23;20083;-91
2024/01/23 09:40:50;;;;;;;1.00;1.00;;;;;;;6.69;74.05;99856.09;6160403;23;20009;-94
2024/01/23 09:43:22;;;;;;;0.90;0.90;;;;;;;6.68;74.86;99871.94;6134989;23;20018;-93
2024/01/23 09:45:50;;;;;;;0.90;0.90;;;;;;;6.77;74.60;99879.53;6134249;23;20048;-92
2024/01/23 09:48:16;;;;;;;0.90;0.90;;;;;;;6.82;73.88;99873.69;6158306;23;20063;-94
2024/01/23 09:50:44;;;;;;;0.95;0.95;;;;;;;6.78;74.34;99882.28;6113007;23;20057;-94
2024/01/23 09:53:11;;;;;;;0.90;0.90;;;;;;;6.87;73.50;99874.91;6135911;23;20437;-93
2024/01/23 09:55:41;;;;;;;0.90;0.90;;;;;;;6.84;73.53;99873.78;6136473;23;20469;-94
2024/01/23 09:58:08;;;;;;;0.90;0.90;;;;;;;6.71;73.97;99885.38;6161600;23;20022;-93
2024/01/23 10:00:35;;;;;;;0.90;0.90;;;;;;;6.74;73.98;99874.94;6135882;23;20083;-92
2024/01/23 10:03:04;;;;;;;1.00;1.00;;;;;;;6.83;73.29;99872.88;6159017;23;20012;-95
2024/01/23 10:05:29;;;;;;;0.90;0.90;;;;;;;6.91;72.55;99879.59;6159586;23;20010;-94
2024/01/23 10:07:55;;;;;;;0.80;0.80;;;;;;;7.00;72.56;99876.59;6160627;23;20089;-92
2024/01/23 10:10:24;;;;;;;1.10;1.10;;;;;;;7.57;71.20;99870.31;6161472;23;20013;-94
2024/01/23 10:12:51;;;;;;;1.00;1.00;;;;;;;8.05;69.31;99870.38;6160299;23;20014;-94
2024/01/23 10:15:20;;;;;;;0.90;0.90;;;;;;;8.77;66.33;99874.44;6137051;23;20026;-92
2024/01/23 10:17:49;;;;;;;0.73;0.73;;;;;;;9.35;64.19;99873.16;6161937;23;20017;-94
2024/01/23 10:20:17;;;;;;;0.80;0.80;;;;;;;8.39;66.85;99886.56;6160703;23;20092;-95
2024/01/23 10:22:45;;;;;;;0.80;0.80;;;;;;;7.91;68.32;99883.81;6157583;23;20029;-92
2024/01/23 10:25:15;;;;;;;0.90;0.90;;;;;;;7.52;69.24;99878.78;6137467;23;20017;-93
2024/01/23 10:27:42;;;;;;;0.90;0.90;;;;;;;7.49;69.27;99874.22;6161742;23;19998;-92
2024/01/23 10:30:08;;;;;;;0.80;0.80;;;;;;;7.34;69.88;99882.19;6160913;23;20005;-92
2024/01/23 10:32:38;;;;;;;0.80;0.80;;;;;;;7.19;69.90;99886.59;6129984;23;20464;-91
2024/01/23 10:35:03;;;;;;;0.90;0.90;;;;;;;7.18;70.48;99888.28;6157966;23;20016;-90
2024/01/23 10:37:30;;;;;;;0.85;0.85;;;;;;;7.13;70.36;99886.19;6160297;23;20018;-92
2024/01/23 10:39:59;;;;;;;0.90;0.90;;;;;;;7.23;69.96;99890.31;6163824;23;20010;-92
2024/01/23 10:42:28;;;;;;;0.90;0.90;;;;;;;7.27;70.67;99898.56;6162034;23;20020;-94
2024/01/23 10:44:57;;;;;;;0.90;0.90;;;;;;;7.30;70.42;99892.53;6164966;23;20017;-93
2024/01/23 10:47:23;;;;;;;1.00;1.00;;;;;;;8.00;67.68;99893.13;6141025;23;20005;-93
2024/01/23 10:49:48;;;;;;;0.90;0.90;;;;;;;9.23;62.91;99870.75;6168414;23;20043;-95
2024/01/23 10:52:18;;;;;;;1.00;1.00;;;;;;;9.77;61.85;99876.19;6166771;23;20022;-92
2024/01/23 10:54:48;;;;;;;0.90;0.90;;;;;;;8.77;64.10;99862.09;6169968;23;20013;-92
2024/01/23 10:57:24;;;;;;;0.95;0.95;;;;;;;8.65;64.03;99864.06;6146216;23;20080;-93
2024/01/23 10:59:51;;;;;;;1.10;1.10;;;;;;;9.08;63.93;99866.38;6169319;23;20076;-92
2024/01/23 11:04:59;;;;;;;0.98;0.98;;;;;;;11.49;55.42;99843.41;6197811;22;20077;-92
2024/01/23 11:07:33;;;;;;;0.90;0.90;;;;;;;11.96;53.42;99848.97;6207821;23;20009;-91
2024/01/23 11:10:24;;;;;;;0.90;0.90;;;;;;;12.12;51.93;99870.19;6208807;23;20020;-91
2024/01/23 11:13:00;;;;;;;0.70;0.70;;;;;;;10.07;57.60;99846.59;6182062;23;20298;-92
2024/01/23 11:15:25;;;;;;;0.90;0.90;;;;;;;11.24;54.46;99840.50;6198974;23;20006;-92
2024/01/23 11:17:53;;;;;;;0.90;0.90;;;;;;;12.26;51.94;99842.22;6196520;23;20016;-91
2024/01/23 11:20:19;;;;;;;0.82;0.82;;;;;;;12.13;52.43;99837.22;6167873;23;20024;-92
2024/01/23 11:22:46;;;;;;;0.60;0.60;;;;;;;9.80;57.75;99855.03;6169258;23;20016;-91
2024/01/23 11:25:16;;;;;;;;;;;;;;;10.38;57.93;99855.25;6165908;23;20024;-91
2024/01/23 11:27:47;;;;;;;0.80;0.80;;;;;;;11.91;54.06;99846.09;6189918;23;19986;-92
2024/01/23 11:30:14;;;;;;;0.80;0.80;;;;;;;10.75;56.61;99857.91;6164024;23;20435;-94
2024/01/23 11:32:40;;;;;;;0.95;0.95;;;;;;;12.13;53.91;99853.28;6187949;23;20024;-92
2024/01/23 11:35:11;;;;;;;0.90;0.90;;;;;;;12.65;50.62;99851.72;6188953;23;20084;-91
2024/01/23 11:37:54;;;;;;;0.60;0.60;;;;;;;12.26;51.21;99860.00;6186478;23;20044;-93
2024/01/23 11:40:29;;;;;;;0.90;0.90;;;;;;;13.14;48.04;99858.97;6157059;23;20010;-92